aviador You're here:

KCBE Decoded Metar

CUMBERLAND REG in MD, USA
Report Time2018-05-23 15:56:00
UTC Time2018-05-23 16:25:50
Flight Rules vfr VFR
Wind350° at 08 Gusting to 15 kt
W.Decomp.*RWY 05: 5.1 kt HW 6.1 kt LCW
RWY 29: 2.7 kt HW 7.5 kt RCW
W.Rank350° ranks 9
Current wind is above 350° avg. (4.9)
Visibility9999 m
Phenomena:N/A
Clouds:Scattered 041 Hf
Scattered 050 Hf
Expected CloudBase > 4,000 ft AGL from Temp-Dew spread
CeilingNone
Temp23°C (ISA +10)
Dew Point13°C (53% RH)
AAT21.0°C
QNH1020 hPa
Density Alt1,850 ft
Elevation774 ft
Report Wrong Elevation
Raw Report
KCBE 231556Z AUTO 35008G15KT 10SM SCT041 SCT050 23/13 A3011 RMK
AO1=

Extra information for KCBE:More info

Metar Taf Metar & Taf Last 4 Metars F.Rules Stats Wind Profile Meteogram Temp Stats Airport Information Weather charts Add Link Nearby VenuesMetar ALERT Operation Metar Decoded Social comments

AIRNAV info for KCBE